createdAt,value
2018-11-14T00:00:32.052Z,6.79
2018-11-14T00:03:03.032Z,6.71
2018-11-14T00:05:33.171Z,6.71
2018-11-14T00:08:03.407Z,6.64
2018-11-14T00:10:33.354Z,6.61
2018-11-14T00:13:03.233Z,6.56
2018-11-14T00:15:33.117Z,6.56
2018-11-14T00:18:03.286Z,6.53
2018-11-14T00:20:33.215Z,6.47
2018-11-14T00:23:03.245Z,6.44
2018-11-14T00:25:33.166Z,6.48
2018-11-14T00:28:03.506Z,6.46
2018-11-14T00:30:33.186Z,6.52
2018-11-14T00:33:03.158Z,6.56
2018-11-14T00:35:33.163Z,6.56
2018-11-14T00:38:03.200Z,6.55
2018-11-14T00:40:33.044Z,6.51
2018-11-14T00:43:02.957Z,6.52
2018-11-14T00:45:32.817Z,6.55
2018-11-14T00:48:02.988Z,6.58
2018-11-14T00:50:32.821Z,6.52
2018-11-14T00:53:02.640Z,6.57
2018-11-14T00:55:32.541Z,6.62
2018-11-14T00:58:02.332Z,6.58
2018-11-14T01:00:32.465Z,6.63
2018-11-14T01:03:02.399Z,6.64
2018-11-14T01:05:32.222Z,6.54
2018-11-14T01:08:02.096Z,6.48
2018-11-14T01:10:31.994Z,6.48
2018-11-14T01:13:02.083Z,6.47
2018-11-14T01:15:32.047Z,6.58
2018-11-14T01:18:01.883Z,6.58
2018-11-14T01:20:31.825Z,6.58
2018-11-14T01:23:01.705Z,6.50
2018-11-14T01:25:31.739Z,6.54
2018-11-14T01:28:01.560Z,6.62
2018-11-14T01:30:31.444Z,6.54
2018-11-14T01:33:01.302Z,6.46
2018-11-14T01:35:31.251Z,6.20
2018-11-14T01:38:01.089Z,6.14
2018-11-14T01:40:31.135Z,6.13
2018-11-14T01:43:00.971Z,6.04
2018-11-14T01:45:30.834Z,5.98
2018-11-14T01:48:01.008Z,5.88
2018-11-14T01:50:30.804Z,5.86
2018-11-14T01:53:00.653Z,5.97
2018-11-14T01:55:30.511Z,5.99
2018-11-14T01:58:00.492Z,5.95
2018-11-14T02:00:30.736Z,6.00
2018-11-14T02:03:00.675Z,5.98
2018-11-14T02:05:30.768Z,6.02
2018-11-14T02:08:00.729Z,5.97
2018-11-14T02:10:30.584Z,5.99
2018-11-14T02:13:00.523Z,6.15
2018-11-14T02:15:30.364Z,6.15
2018-11-14T02:18:00.221Z,6.26
2018-11-14T02:20:29.997Z,6.44
2018-11-14T02:23:00.101Z,6.53
2018-11-14T02:25:30.321Z,6.70
2018-11-14T02:28:00.133Z,6.78
2018-11-14T02:30:30.188Z,6.91
2018-11-14T02:33:00.093Z,7.02
2018-11-14T02:35:29.952Z,6.94
2018-11-14T02:37:59.795Z,6.89
2018-11-14T02:40:29.633Z,6.83
2018-11-14T02:42:59.516Z,6.79
2018-11-14T02:45:29.352Z,6.80
2018-11-14T02:47:59.192Z,6.85
2018-11-14T02:50:29.114Z,6.95
2018-11-14T02:52:59.068Z,6.81
2018-11-14T02:55:28.846Z,6.89
2018-11-14T02:57:58.664Z,6.81
2018-11-14T03:00:28.516Z,6.80
2018-11-14T03:02:58.467Z,6.84
2018-11-14T03:05:28.426Z,6.70
2018-11-14T03:07:58.289Z,6.78
2018-11-14T03:10:28.200Z,6.64
2018-11-14T03:12:58.078Z,6.62
2018-11-14T03:15:27.905Z,6.61
2018-11-14T03:17:57.844Z,6.50
2018-11-14T03:20:27.722Z,6.53
2018-11-14T03:22:57.551Z,6.65
2018-11-14T03:25:27.400Z,6.58
2018-11-14T03:27:57.192Z,6.61
2018-11-14T03:30:27.145Z,6.55
2018-11-14T03:32:56.949Z,6.58
2018-11-14T03:35:30.769Z,6.59
2018-11-14T03:38:00.578Z,6.69
2018-11-14T03:40:30.408Z,6.75
2018-11-14T03:43:00.224Z,6.86
2018-11-14T03:45:30.050Z,6.84
2018-11-14T03:47:59.901Z,6.82
2018-11-14T03:50:29.724Z,6.88
2018-11-14T03:56:35.300Z,6.89
2018-11-14T03:59:06.006Z,6.95
2018-11-14T04:01:35.790Z,6.90
2018-11-14T04:04:06.142Z,6.98
2018-11-14T04:06:35.949Z,7.04
2018-11-14T04:09:09.879Z,7.11
2018-11-14T04:11:39.985Z,7.05
2018-11-14T04:14:10.116Z,7.11
2018-11-14T04:16:39.962Z,7.07
2018-11-14T04:19:10.833Z,7.01
2018-11-14T04:21:40.691Z,6.98
2018-11-14T04:24:10.527Z,6.98
2018-11-14T04:26:40.307Z,6.93
2018-11-14T04:29:10.355Z,6.99
2018-11-14T04:31:40.597Z,7.09
2018-11-14T04:34:11.148Z,7.02
2018-11-14T04:36:41.039Z,7.07
2018-11-14T04:39:11.723Z,7.07
2018-11-14T04:41:41.763Z,7.14
2018-11-14T04:44:12.481Z,7.25
2018-11-14T04:46:42.370Z,7.20
2018-11-14T04:49:12.214Z,7.19
2018-11-14T04:51:42.005Z,7.36
2018-11-14T04:54:11.795Z,7.43
2018-11-14T04:56:41.819Z,7.39
2018-11-14T04:59:11.649Z,7.46
2018-11-14T05:01:41.507Z,7.49
2018-11-14T05:04:11.380Z,7.36
2018-11-14T05:06:41.265Z,7.29
2018-11-14T05:09:12.800Z,7.26
2018-11-14T05:11:43.051Z,7.25
2018-11-14T05:14:12.860Z,7.23
2018-11-14T05:16:42.685Z,7.34
2018-11-14T05:19:12.593Z,7.46
2018-11-14T05:21:42.502Z,7.44
2018-11-14T05:24:12.314Z,7.57
2018-11-14T05:26:42.231Z,7.52
2018-11-14T05:29:12.136Z,7.63
2018-11-14T05:31:42.018Z,7.71
2018-11-14T05:34:12.059Z,7.82
2018-11-14T05:36:41.851Z,7.88
2018-11-14T05:39:12.403Z,7.84
2018-11-14T05:41:42.328Z,7.78
2018-11-14T05:44:12.322Z,7.81
2018-11-14T05:46:42.161Z,7.71
2018-11-14T05:49:12.235Z,7.59
2018-11-14T05:51:42.052Z,7.45
2018-11-14T05:54:11.866Z,7.37
2018-11-14T05:56:41.837Z,7.65
2018-11-14T05:59:11.725Z,7.69
2018-11-14T06:01:41.533Z,7.88
2018-11-14T06:04:11.841Z,7.88
2018-11-14T06:06:41.861Z,7.93
2018-11-14T06:09:13.950Z,7.80
2018-11-14T06:11:43.821Z,7.84
2018-11-14T06:14:13.615Z,7.69
2018-11-14T06:16:43.441Z,7.52
2018-11-14T06:19:13.308Z,7.57
2018-11-14T06:21:43.295Z,7.67
2018-11-14T06:24:13.312Z,7.78
2018-11-14T06:26:43.345Z,7.91
2018-11-14T06:29:13.423Z,7.83
2018-11-14T06:31:43.247Z,7.94
2018-11-14T06:34:13.073Z,8.03
2018-11-14T06:36:42.965Z,7.90
2018-11-14T06:39:13.058Z,8.10
2018-11-14T06:41:42.917Z,8.02
2018-11-14T06:44:12.946Z,7.96
2018-11-14T06:46:42.798Z,8.07
2018-11-14T06:49:12.629Z,8.13
2018-11-14T06:51:42.449Z,8.11
2018-11-14T06:54:12.258Z,8.19
2018-11-14T06:56:42.066Z,8.19
2018-11-14T06:59:11.929Z,8.16
2018-11-14T07:01:41.872Z,8.20
2018-11-14T07:04:39.843Z,8.25
2018-11-14T07:07:09.739Z,8.29
2018-11-14T07:09:39.544Z,8.29
2018-11-14T07:12:09.368Z,8.37
2018-11-14T07:14:39.116Z,8.29
2018-11-14T07:17:08.872Z,8.25
2018-11-14T07:19:38.826Z,8.06
2018-11-14T07:22:08.643Z,7.91
2018-11-14T07:24:38.495Z,7.97
2018-11-14T07:27:08.446Z,8.03
2018-11-14T07:29:38.221Z,7.99
2018-11-14T07:32:08.152Z,7.98
2018-11-14T07:34:38.074Z,8.02
2018-11-14T07:37:07.901Z,8.11
2018-11-14T07:39:37.676Z,8.28
2018-11-14T07:42:07.478Z,8.17
2018-11-14T07:44:37.351Z,7.90
2018-11-14T07:47:07.136Z,7.85
2018-11-14T07:49:36.881Z,7.61
2018-11-14T07:52:07.002Z,7.49
2018-11-14T07:54:36.793Z,7.50
2018-11-14T07:57:06.858Z,7.29
2018-11-14T07:59:36.668Z,7.33
2018-11-14T08:02:07.025Z,7.22
2018-11-14T08:04:36.924Z,7.27
2018-11-14T08:07:07.224Z,7.17
2018-11-14T08:09:37.092Z,7.13
2018-11-14T08:12:07.548Z,7.12
2018-11-14T08:14:37.325Z,7.11
2018-11-14T08:17:07.621Z,7.03
2018-11-14T08:19:37.417Z,7.03
2018-11-14T08:22:07.240Z,6.91
2018-11-14T08:24:37.068Z,6.93
2018-11-14T08:27:07.552Z,6.93
2018-11-14T08:29:37.316Z,6.84
2018-11-14T08:32:07.819Z,6.80
2018-11-14T08:34:37.684Z,6.72
2018-11-14T08:37:07.436Z,6.68
2018-11-14T08:39:37.191Z,6.73
2018-11-14T08:42:07.143Z,6.79
2018-11-14T08:44:36.858Z,6.76
2018-11-14T08:47:07.337Z,6.80
2018-11-14T08:49:37.122Z,6.77
2018-11-14T08:52:07.470Z,6.66
2018-11-14T08:54:37.439Z,6.76
2018-11-14T08:57:07.672Z,6.73
2018-11-14T08:59:37.421Z,6.81
2018-11-14T09:02:07.583Z,6.79
2018-11-14T09:04:37.340Z,6.95
2018-11-14T09:07:08.210Z,6.97
2018-11-14T09:09:38.003Z,6.95
2018-11-14T09:12:08.292Z,6.90
2018-11-14T09:14:38.620Z,6.82
2018-11-14T09:17:09.204Z,6.92
2018-11-14T09:19:38.992Z,7.02
2018-11-14T09:22:08.811Z,7.03
2018-11-14T09:24:38.613Z,6.74
2018-11-14T09:27:08.520Z,6.66
2018-11-14T09:29:38.334Z,6.69
2018-11-14T09:32:08.220Z,6.65
2018-11-14T09:34:38.600Z,6.73
2018-11-14T09:37:08.563Z,7.00
2018-11-14T09:39:38.319Z,7.13
2018-11-14T09:42:08.091Z,7.05
2018-11-14T09:44:38.043Z,7.14
2018-11-14T09:47:08.025Z,6.99
2018-11-14T09:49:37.790Z,7.10
2018-11-14T09:52:07.552Z,7.16
2018-11-14T09:54:37.331Z,7.19
2018-11-14T09:57:07.224Z,7.13
2018-11-14T09:59:37.057Z,6.98
2018-11-14T10:02:07.213Z,6.91
2018-11-14T10:04:37.006Z,6.85
2018-11-14T10:07:06.776Z,6.81
2018-11-14T10:09:36.519Z,6.83
2018-11-14T10:12:06.862Z,6.88
2018-11-14T10:14:36.627Z,6.92
2018-11-14T10:17:06.509Z,6.91
2018-11-14T10:19:36.509Z,6.81
2018-11-14T10:22:06.423Z,6.88
2018-11-14T10:24:36.200Z,7.03
2018-11-14T10:27:06.538Z,7.06
2018-11-14T10:29:36.294Z,6.95
2018-11-14T10:32:06.433Z,7.05
2018-11-14T10:34:36.194Z,6.97
2018-11-14T10:37:06.428Z,7.02
2018-11-14T10:39:36.338Z,6.97
2018-11-14T10:42:06.172Z,7.06
2018-11-14T10:44:36.082Z,7.11
2018-11-14T10:47:06.235Z,7.21
2018-11-14T10:49:36.003Z,7.16
2018-11-14T10:52:05.771Z,7.05
2018-11-14T10:54:35.589Z,6.95
2018-11-14T10:57:05.357Z,6.96
2018-11-14T10:59:35.144Z,7.03
2018-11-14T11:02:10.043Z,7.00
2018-11-14T11:04:44.991Z,7.09
2018-11-14T11:07:20.339Z,7.04
2018-11-14T11:09:55.339Z,7.06
2018-11-14T11:12:30.221Z,7.08
2018-11-14T11:15:05.074Z,7.09
2018-11-14T11:17:40.081Z,7.09
2018-11-14T11:20:10.612Z,7.09
2018-11-14T11:22:40.421Z,7.22
2018-11-14T11:25:10.208Z,7.29
2018-11-14T11:27:39.979Z,7.29
2018-11-14T11:30:11.449Z,7.43
2018-11-14T11:32:41.330Z,7.45
2018-11-14T11:35:11.150Z,7.45
2018-11-14T11:44:29.244Z,7.62
2018-11-14T11:46:59.050Z,7.51
2018-11-14T11:49:28.830Z,7.63
2018-11-14T11:51:58.563Z,7.81
2018-11-14T11:54:28.461Z,7.56
2018-11-14T11:56:58.184Z,7.42
2018-11-14T11:59:27.980Z,7.56
2018-11-14T12:01:57.930Z,7.57
2018-11-14T12:04:27.850Z,7.51
2018-11-14T12:06:57.601Z,7.36
2018-11-14T12:09:27.348Z,7.39
2018-11-14T12:11:57.124Z,7.46
2018-11-14T12:14:26.859Z,7.43
2018-11-14T12:16:56.774Z,7.40
2018-11-14T12:19:26.532Z,7.42
2018-11-14T12:21:56.313Z,7.40
2018-11-14T12:24:26.119Z,7.40
2018-11-14T12:26:55.953Z,7.34
2018-11-14T12:29:25.757Z,7.48
2018-11-14T12:31:55.487Z,7.41
2018-11-14T12:34:25.287Z,7.41
2018-11-14T12:36:55.231Z,7.55
2018-11-14T12:39:25.006Z,7.56
2018-11-14T12:41:54.779Z,7.79
2018-11-14T12:44:24.534Z,7.70
2018-11-14T12:46:54.293Z,7.61
2018-11-14T12:49:24.119Z,7.43
2018-11-14T12:51:54.159Z,7.43
2018-11-14T12:54:23.909Z,7.52
2018-11-14T12:56:53.711Z,7.44
2018-11-14T12:59:23.653Z,7.35
2018-11-14T13:01:53.711Z,7.41
2018-11-14T13:04:23.434Z,7.41
2018-11-14T13:06:53.188Z,7.38
2018-11-14T13:09:22.963Z,7.44
2018-11-14T13:11:52.764Z,7.57
2018-11-14T13:14:22.556Z,7.42
2018-11-14T13:16:52.407Z,7.30
2018-11-14T13:19:22.153Z,7.47
2018-11-14T13:21:51.902Z,7.61
2018-11-14T13:24:21.738Z,7.43
2018-11-14T13:26:51.474Z,7.29
2018-11-14T13:29:21.233Z,7.24
2018-11-14T13:31:50.982Z,7.19
2018-11-14T13:34:20.733Z,7.27
2018-11-14T13:36:50.622Z,7.45
2018-11-14T13:39:20.382Z,7.65
2018-11-14T13:41:50.118Z,7.51
2018-11-14T13:44:19.869Z,7.62
2018-11-14T13:46:49.644Z,7.68
2018-11-14T13:49:19.665Z,7.62
2018-11-14T13:51:49.455Z,7.54
2018-11-14T13:54:19.231Z,7.41
2018-11-14T13:56:48.970Z,7.29
2018-11-14T13:59:18.724Z,7.21
2018-11-14T14:01:48.676Z,7.11
2018-11-14T14:04:18.558Z,7.08
2018-11-14T14:06:48.356Z,7.09
2018-11-14T14:09:18.443Z,7.07
2018-11-14T14:11:48.435Z,7.16
2018-11-14T14:14:19.114Z,7.14
2018-11-14T14:16:48.863Z,7.15
2018-11-14T14:19:18.620Z,7.19
2018-11-14T14:21:48.533Z,7.17
2018-11-14T14:24:18.275Z,7.15
2018-11-14T14:26:48.032Z,7.00
2018-11-14T14:29:17.824Z,7.03
2018-11-14T14:31:47.673Z,7.17
2018-11-14T14:34:17.446Z,7.12
2018-11-14T14:36:47.218Z,7.09
2018-11-14T14:39:16.951Z,7.07
2018-11-14T14:41:46.698Z,7.10
2018-11-14T14:44:16.439Z,7.06
2018-11-14T14:46:46.195Z,7.06
2018-11-14T14:49:15.990Z,7.14
2018-11-14T14:51:45.752Z,7.06
2018-11-14T14:54:15.590Z,6.95
2018-11-14T14:56:45.380Z,7.08
2018-11-14T14:59:15.184Z,7.04
2018-11-14T15:01:44.950Z,6.95
2018-11-14T15:04:14.704Z,6.93
2018-11-14T15:06:44.572Z,6.86
2018-11-14T15:09:14.359Z,6.83
2018-11-14T15:11:44.133Z,6.79
2018-11-14T15:14:13.891Z,6.82
2018-11-14T15:16:43.699Z,6.87
2018-11-14T15:19:13.432Z,6.96
2018-11-14T15:21:43.190Z,6.88
2018-11-14T15:24:13.149Z,6.87
2018-11-14T15:26:42.909Z,6.91
2018-11-14T15:29:12.672Z,6.87
2018-11-14T15:31:42.423Z,6.73
2018-11-14T15:34:12.170Z,6.73
2018-11-14T15:36:41.918Z,6.79
2018-11-14T15:39:13.035Z,6.77
2018-11-14T15:41:42.783Z,6.82
2018-11-14T15:44:12.547Z,6.95
2018-11-14T15:46:42.336Z,7.06
2018-11-14T15:49:12.483Z,6.97
2018-11-14T15:51:42.339Z,7.22
2018-11-14T15:54:12.275Z,7.19
2018-11-14T15:56:42.082Z,7.17
2018-11-14T15:59:11.860Z,7.11
2018-11-14T16:01:41.624Z,7.18
2018-11-14T16:04:11.591Z,7.13
2018-11-14T16:06:41.378Z,7.23
2018-11-14T16:09:13.075Z,7.23
2018-11-14T16:11:42.790Z,7.28
2018-11-14T16:14:12.529Z,7.34
2018-11-14T16:16:42.290Z,7.19
2018-11-14T16:19:12.035Z,6.95
2018-11-14T16:21:41.815Z,6.92
2018-11-14T16:24:11.578Z,6.94
2018-11-14T16:26:41.328Z,6.94
2018-11-14T16:29:11.122Z,7.04
2018-11-14T16:31:40.895Z,7.03
2018-11-14T16:34:10.837Z,7.09
2018-11-14T16:36:40.687Z,6.90
2018-11-14T16:39:12.625Z,6.84
2018-11-14T16:41:42.407Z,6.92
2018-11-14T16:44:12.200Z,6.64
2018-11-14T16:46:41.951Z,6.63
2018-11-14T16:49:11.697Z,6.55
2018-11-14T16:51:41.497Z,6.57
2018-11-14T16:54:11.262Z,6.51
2018-11-14T16:56:41.039Z,6.59
2018-11-14T16:59:10.940Z,6.50
2018-11-14T17:01:40.699Z,6.51
2018-11-14T17:04:10.499Z,6.52
2018-11-14T17:06:40.686Z,6.72
2018-11-14T17:09:12.668Z,6.75
2018-11-14T17:11:42.746Z,6.79
2018-11-14T17:14:12.603Z,6.81
2018-11-14T17:16:42.346Z,6.91
2018-11-14T17:19:12.144Z,6.80
2018-11-14T17:21:41.925Z,6.81
2018-11-14T17:24:11.900Z,6.74
2018-11-14T17:26:41.671Z,6.60
2018-11-14T17:29:11.506Z,6.61
2018-11-14T17:31:41.271Z,6.59
2018-11-14T17:34:11.058Z,6.46
2018-11-14T17:36:40.852Z,6.58
2018-11-14T17:39:13.859Z,6.61
2018-11-14T17:41:44.240Z,6.47
2018-11-14T17:44:14.169Z,6.49
2018-11-14T17:46:43.905Z,6.56
2018-11-14T17:49:13.698Z,6.72
2018-11-14T17:51:43.460Z,6.83
2018-11-14T17:54:13.265Z,6.62
2018-11-14T17:56:43.038Z,6.72
2018-11-14T17:59:13.017Z,6.60
2018-11-14T18:01:42.780Z,6.58
2018-11-14T18:04:12.621Z,6.47
2018-11-14T18:06:42.795Z,6.44
2018-11-14T18:09:14.282Z,6.46
2018-11-14T18:11:44.031Z,6.54
2018-11-14T18:14:13.805Z,6.50
2018-11-14T18:16:43.654Z,6.47
2018-11-14T18:19:13.573Z,6.50
2018-11-14T18:21:43.316Z,6.48
2018-11-14T18:24:13.260Z,6.36
2018-11-14T18:26:42.997Z,6.34
2018-11-14T18:29:12.756Z,6.26
2018-11-14T18:31:42.543Z,6.32
2018-11-14T18:34:12.262Z,6.28
2018-11-14T18:36:42.173Z,6.31
2018-11-14T18:39:13.878Z,6.27
2018-11-14T18:41:44.290Z,6.26
2018-11-14T18:44:14.092Z,6.34
2018-11-14T18:46:43.811Z,6.38
2018-11-14T18:49:13.785Z,6.51
2018-11-14T18:51:43.562Z,6.37
2018-11-14T18:54:13.373Z,6.45
2018-11-14T18:56:43.117Z,6.48
2018-11-14T18:59:12.864Z,6.45
2018-11-14T19:01:42.712Z,6.40
2018-11-14T19:04:12.458Z,6.32
2018-11-14T19:06:42.351Z,6.33
2018-11-14T19:09:12.253Z,6.31
2018-11-14T19:11:42.039Z,6.46
2018-11-14T19:14:11.904Z,6.37
2018-11-14T19:16:41.637Z,6.26
2018-11-14T19:19:11.463Z,6.33
2018-11-14T19:21:41.367Z,6.28
2018-11-14T19:24:11.119Z,6.18
2018-11-14T19:26:40.981Z,6.14
2018-11-14T19:29:10.778Z,6.19
2018-11-14T19:31:40.550Z,6.16
2018-11-14T19:34:10.334Z,6.15
2018-11-14T19:36:40.129Z,6.12
2018-11-14T19:39:12.593Z,6.04
2018-11-14T19:41:42.804Z,6.04
2018-11-14T19:44:12.605Z,6.07
2018-11-14T19:46:42.429Z,6.10
2018-11-14T19:49:12.231Z,6.03
2018-11-14T19:51:42.144Z,6.02
2018-11-14T19:54:11.915Z,5.95
2018-11-14T19:56:41.657Z,5.92
2018-11-14T19:59:11.781Z,5.90
2018-11-14T20:01:41.595Z,5.89
2018-11-14T20:04:11.423Z,5.96
2018-11-14T20:06:41.231Z,6.07
2018-11-14T20:09:11.856Z,6.11
2018-11-14T20:11:41.642Z,6.00
2018-11-14T20:14:11.419Z,5.85
2018-11-14T20:16:41.195Z,5.93
2018-11-14T20:19:10.903Z,5.87
2018-11-14T20:21:40.693Z,5.85
2018-11-14T20:24:10.437Z,5.84
2018-11-14T20:26:40.317Z,5.83
2018-11-14T20:29:10.056Z,5.82
2018-11-14T20:31:39.928Z,5.82
2018-11-14T20:34:09.907Z,5.79
2018-11-14T20:36:39.769Z,5.80
2018-11-14T20:39:12.198Z,5.80
2018-11-14T20:41:42.183Z,5.80
2018-11-14T20:44:11.941Z,5.75
2018-11-14T20:46:41.705Z,5.78
2018-11-14T20:49:11.494Z,5.69
2018-11-14T20:51:41.483Z,5.78
2018-11-14T20:54:11.286Z,5.83
2018-11-14T20:56:41.100Z,5.89
2018-11-14T20:59:10.858Z,5.93
2018-11-14T21:01:40.635Z,5.97
2018-11-14T21:04:10.395Z,6.02
2018-11-14T21:06:40.179Z,6.00
2018-11-14T21:09:11.165Z,6.09
2018-11-14T21:11:40.905Z,6.30
2018-11-14T21:14:10.738Z,6.35
2018-11-14T21:16:40.551Z,6.24
2018-11-14T21:19:10.323Z,6.28
2018-11-14T21:21:40.113Z,6.27
2018-11-14T21:24:09.863Z,6.36
2018-11-14T21:26:39.639Z,6.43
2018-11-14T21:29:09.367Z,6.47
2018-11-14T21:31:39.933Z,6.47
2018-11-14T21:34:09.718Z,6.43
2018-11-14T21:36:39.551Z,6.37
2018-11-14T21:39:12.710Z,6.53
2018-11-14T21:41:43.553Z,6.36
2018-11-14T21:44:13.345Z,6.35
2018-11-14T21:46:43.079Z,6.51
2018-11-14T21:49:18.198Z,6.63
2018-11-14T21:51:47.969Z,6.73
2018-11-14T21:54:17.723Z,6.79
2018-11-14T21:56:47.527Z,6.81
2018-11-14T21:59:17.257Z,6.83
2018-11-14T22:01:47.173Z,6.72
2018-11-14T22:04:16.955Z,6.49
2018-11-14T22:06:46.734Z,6.47
2018-11-14T22:09:16.515Z,6.57
2018-11-14T22:11:46.262Z,6.63
2018-11-14T22:14:16.015Z,6.76
2018-11-14T22:16:45.777Z,6.95
2018-11-14T22:19:15.545Z,6.95
2018-11-14T22:21:45.488Z,6.88
2018-11-14T22:24:15.270Z,7.13
2018-11-14T22:26:45.028Z,7.01
2018-11-14T22:29:14.783Z,6.99
2018-11-14T22:31:44.535Z,7.10
2018-11-14T22:34:14.367Z,7.12
2018-11-14T22:36:44.326Z,7.17
2018-11-14T22:39:14.109Z,7.09
2018-11-14T22:41:43.883Z,7.07
2018-11-14T22:44:13.984Z,7.14
2018-11-14T22:46:43.749Z,7.11
2018-11-14T22:49:13.496Z,7.13
2018-11-14T22:51:43.290Z,7.15
2018-11-14T22:54:13.412Z,7.08
2018-11-14T22:56:43.197Z,7.19
2018-11-14T22:59:12.942Z,7.09
2018-11-14T23:01:42.714Z,7.08
2018-11-14T23:04:12.441Z,7.08
2018-11-14T23:06:42.219Z,7.29
2018-11-14T23:09:13.450Z,7.21
2018-11-14T23:11:43.208Z,7.28
2018-11-14T23:14:12.930Z,7.34
2018-11-14T23:16:42.735Z,7.23
2018-11-14T23:19:12.468Z,7.02
2018-11-14T23:21:42.252Z,7.13
2018-11-14T23:24:12.110Z,7.29
2018-11-14T23:26:41.908Z,7.18
2018-11-14T23:29:11.680Z,7.12
2018-11-14T23:31:41.474Z,7.21
2018-11-14T23:34:11.288Z,7.10
2018-11-14T23:36:41.063Z,7.15
2018-11-14T23:39:13.650Z,7.17
2018-11-14T23:41:43.414Z,7.18
2018-11-14T23:44:13.236Z,7.33
2018-11-14T23:46:43.230Z,7.13
2018-11-14T23:49:13.256Z,7.17
2018-11-14T23:51:43.171Z,7.18
2018-11-14T23:54:13.266Z,7.17
2018-11-14T23:56:43.092Z,7.00
2018-11-14T23:59:12.910Z,6.99
